sensor_id;sensor_type;location;lat;lon;timestamp;temperature;humidity
47336;DHT22;33068;51.990;5.926;2023-02-23T00:01:36;8.00;99.90
47336;DHT22;33068;51.990;5.926;2023-02-23T00:04:04;7.90;99.90
47336;DHT22;33068;51.990;5.926;2023-02-23T00:06:33;7.90;99.90
47336;DHT22;33068;51.990;5.926;2023-02-23T00:09:02;8.20;99.90
47336;DHT22;33068;51.990;5.926;2023-02-23T00:11:37;7.90;99.90
47336;DHT22;33068;51.990;5.926;2023-02-23T00:14:04;8.00;99.90
47336;DHT22;33068;51.990;5.926;2023-02-23T00:16:33;7.90;99.90
47336;DHT22;33068;51.990;5.926;2023-02-23T00:19:03;7.90;99.90
47336;DHT22;33068;51.990;5.926;2023-02-23T00:21:32;7.90;99.90
47336;DHT22;33068;51.990;5.926;2023-02-23T00:24:01;7.90;99.90
47336;DHT22;33068;51.990;5.926;2023-02-23T00:26:30;8.10;99.90
47336;DHT22;33068;51.990;5.926;2023-02-23T00:29:00;7.90;99.90
47336;DHT22;33068;51.990;5.926;2023-02-23T00:31:28;7.90;99.90
47336;DHT22;33068;51.990;5.926;2023-02-23T00:33:56;7.80;99.90
47336;DHT22;33068;51.990;5.926;2023-02-23T00:36:27;7.80;99.90
47336;DHT22;33068;51.990;5.926;2023-02-23T00:38:56;7.80;99.90
47336;DHT22;33068;51.990;5.926;2023-02-23T00:41:25;7.80;99.90
47336;DHT22;33068;51.990;5.926;2023-02-23T00:43:54;7.80;99.90
47336;DHT22;33068;51.990;5.926;2023-02-23T00:46:23;7.70;99.90
47336;DHT22;33068;51.990;5.926;2023-02-23T00:48:52;7.60;99.90
47336;DHT22;33068;51.990;5.926;2023-02-23T00:51:21;7.60;99.90
47336;DHT22;33068;51.990;5.926;2023-02-23T00:53:52;7.80;99.90
47336;DHT22;33068;51.990;5.926;2023-02-23T00:56:19;7.70;99.90
47336;DHT22;33068;51.990;5.926;2023-02-23T00:58:48;7.70;99.90
47336;DHT22;33068;51.990;5.926;2023-02-23T01:01:15;7.70;99.90
47336;DHT22;33068;51.990;5.926;2023-02-23T01:03:42;7.70;99.90
47336;DHT22;33068;51.990;5.926;2023-02-23T01:06:14;7.90;99.90
47336;DHT22;33068;51.990;5.926;2023-02-23T01:08:43;7.80;99.90
47336;DHT22;33068;51.990;5.926;2023-02-23T01:11:16;7.80;99.90
47336;DHT22;33068;51.990;5.926;2023-02-23T01:13:47;7.80;99.90
47336;DHT22;33068;51.990;5.926;2023-02-23T01:16:16;7.80;99.90
47336;DHT22;33068;51.990;5.926;2023-02-23T01:18:45;7.80;99.90
47336;DHT22;33068;51.990;5.926;2023-02-23T01:21:15;7.80;99.90
47336;DHT22;33068;51.990;5.926;2023-02-23T01:23:43;7.80;99.90
47336;DHT22;33068;51.990;5.926;2023-02-23T01:26:19;7.80;99.90
47336;DHT22;33068;51.990;5.926;2023-02-23T01:28:50;7.80;99.90
47336;DHT22;33068;51.990;5.926;2023-02-23T01:31:18;7.80;99.90
47336;DHT22;33068;51.990;5.926;2023-02-23T01:33:45;7.80;99.90
47336;DHT22;33068;51.990;5.926;2023-02-23T01:36:13;7.80;99.90
47336;DHT22;33068;51.990;5.926;2023-02-23T01:38:40;7.80;99.90
47336;DHT22;33068;51.990;5.926;2023-02-23T01:41:07;7.90;99.90
47336;DHT22;33068;51.990;5.926;2023-02-23T01:43:55;7.90;99.90
47336;DHT22;33068;51.990;5.926;2023-02-23T01:46:22;7.90;99.90
47336;DHT22;33068;51.990;5.926;2023-02-23T01:48:50;7.80;99.90
47336;DHT22;33068;51.990;5.926;2023-02-23T01:51:24;7.80;99.90
47336;DHT22;33068;51.990;5.926;2023-02-23T01:53:57;7.80;99.90
47336;DHT22;33068;51.990;5.926;2023-02-23T01:56:30;7.80;99.90
47336;DHT22;33068;51.990;5.926;2023-02-23T01:59:04;7.90;99.90
47336;DHT22;33068;51.990;5.926;2023-02-23T02:01:34;7.80;99.90
47336;DHT22;33068;51.990;5.926;2023-02-23T02:04:06;7.90;99.90
47336;DHT22;33068;51.990;5.926;2023-02-23T02:07:08;7.80;99.90
47336;DHT22;33068;51.990;5.926;2023-02-23T02:10:10;7.90;99.90
47336;DHT22;33068;51.990;5.926;2023-02-23T02:13:10;7.80;99.90
47336;DHT22;33068;51.990;5.926;2023-02-23T02:16:42;7.80;99.90
47336;DHT22;33068;51.990;5.926;2023-02-23T02:20:20;8.00;99.90
47336;DHT22;33068;51.990;5.926;2023-02-23T02:23:33;7.80;99.90
47336;DHT22;33068;51.990;5.926;2023-02-23T02:27:09;7.70;99.90
47336;DHT22;33068;51.990;5.926;2023-02-23T02:30:34;7.90;99.90
47336;DHT22;33068;51.990;5.926;2023-02-23T02:37:13;7.80;99.90
47336;DHT22;33068;51.990;5.926;2023-02-23T02:40:47;7.80;99.90
47336;DHT22;33068;51.990;5.926;2023-02-23T02:43:53;7.80;99.90
47336;DHT22;33068;51.990;5.926;2023-02-23T02:47:25;7.80;99.90
47336;DHT22;33068;51.990;5.926;2023-02-23T02:50:24;7.80;99.90
47336;DHT22;33068;51.990;5.926;2023-02-23T02:57:37;7.70;99.90
47336;DHT22;33068;51.990;5.926;2023-02-23T03:00:11;7.80;99.90
47336;DHT22;33068;51.990;5.926;2023-02-23T03:03:47;7.70;99.90
47336;DHT22;33068;51.990;5.926;2023-02-23T03:06:49;8.00;99.90
47336;DHT22;33068;51.990;5.926;2023-02-23T03:09:53;7.70;99.90
47336;DHT22;33068;51.990;5.926;2023-02-23T03:13:00;7.70;99.90
47336;DHT22;33068;51.990;5.926;2023-02-23T03:16:00;7.70;99.90
47336;DHT22;33068;51.990;5.926;2023-02-23T03:19:02;7.70;99.90
47336;DHT22;33068;51.990;5.926;2023-02-23T03:23:24;7.70;99.90
47336;DHT22;33068;51.990;5.926;2023-02-23T03:25:27;7.70;99.90
47336;DHT22;33068;51.990;5.926;2023-02-23T03:28:54;7.70;99.90
47336;DHT22;33068;51.990;5.926;2023-02-23T03:31:46;7.70;99.90
47336;DHT22;33068;51.990;5.926;2023-02-23T03:34:43;7.70;99.90
47336;DHT22;33068;51.990;5.926;2023-02-23T03:38:01;7.60;99.90
47336;DHT22;33068;51.990;5.926;2023-02-23T03:41:32;7.60;99.90
47336;DHT22;33068;51.990;5.926;2023-02-23T03:44:17;7.60;99.90
47336;DHT22;33068;51.990;5.926;2023-02-23T03:47:36;7.60;99.90
47336;DHT22;33068;51.990;5.926;2023-02-23T03:50:41;7.60;99.90
47336;DHT22;33068;51.990;5.926;2023-02-23T03:56:55;7.50;99.90
47336;DHT22;33068;51.990;5.926;2023-02-23T04:03:27;7.60;99.90
47336;DHT22;33068;51.990;5.926;2023-02-23T04:06:31;7.70;99.90
47336;DHT22;33068;51.990;5.926;2023-02-23T04:09:38;7.60;99.90
47336;DHT22;33068;51.990;5.926;2023-02-23T04:13:05;7.60;99.90
47336;DHT22;33068;51.990;5.926;2023-02-23T04:16:07;7.60;99.90
47336;DHT22;33068;51.990;5.926;2023-02-23T04:18:56;7.60;99.90
47336;DHT22;33068;51.990;5.926;2023-02-23T04:21:50;7.60;99.90
47336;DHT22;33068;51.990;5.926;2023-02-23T04:24:52;7.60;99.90
47336;DHT22;33068;51.990;5.926;2023-02-23T04:34:07;7.60;99.90
47336;DHT22;33068;51.990;5.926;2023-02-23T04:36:56;7.60;99.90
47336;DHT22;33068;51.990;5.926;2023-02-23T04:40:25;7.60;99.90
47336;DHT22;33068;51.990;5.926;2023-02-23T04:43:33;7.60;99.90
47336;DHT22;33068;51.990;5.926;2023-02-23T04:46:23;7.60;99.90
47336;DHT22;33068;51.990;5.926;2023-02-23T04:49:01;7.60;99.90
47336;DHT22;33068;51.990;5.926;2023-02-23T04:55:02;7.60;99.90
47336;DHT22;33068;51.990;5.926;2023-02-23T04:57:55;7.50;99.90
47336;DHT22;33068;51.990;5.926;2023-02-23T05:00:44;7.60;99.90
47336;DHT22;33068;51.990;5.926;2023-02-23T05:03:51;7.50;99.90
47336;DHT22;33068;51.990;5.926;2023-02-23T05:06:26;7.50;99.90
47336;DHT22;33068;51.990;5.926;2023-02-23T05:09:02;7.50;99.90
47336;DHT22;33068;51.990;5.926;2023-02-23T05:12:02;7.50;99.90
47336;DHT22;33068;51.990;5.926;2023-02-23T05:15:03;7.50;99.90
47336;DHT22;33068;51.990;5.926;2023-02-23T05:17:46;7.50;99.90
47336;DHT22;33068;51.990;5.926;2023-02-23T05:20:31;7.70;99.90
47336;DHT22;33068;51.990;5.926;2023-02-23T05:23:26;7.50;99.90
47336;DHT22;33068;51.990;5.926;2023-02-23T05:26:08;7.60;99.90
47336;DHT22;33068;51.990;5.926;2023-02-23T05:29:13;7.50;99.90
47336;DHT22;33068;51.990;5.926;2023-02-23T05:32:02;7.50;99.90
47336;DHT22;33068;51.990;5.926;2023-02-23T05:34:44;7.40;99.90
47336;DHT22;33068;51.990;5.926;2023-02-23T05:38:34;7.30;99.90
47336;DHT22;33068;51.990;5.926;2023-02-23T05:41:30;7.30;99.90
47336;DHT22;33068;51.990;5.926;2023-02-23T05:47:28;7.40;99.90
47336;DHT22;33068;51.990;5.926;2023-02-23T09:48:50;8.40;99.90
47336;DHT22;33068;51.990;5.926;2023-02-23T09:51:19;8.50;99.90
47336;DHT22;33068;51.990;5.926;2023-02-23T10:03:52;8.40;99.90
47336;DHT22;33068;51.990;5.926;2023-02-23T10:06:32;8.50;99.90
47336;DHT22;33068;51.990;5.926;2023-02-23T10:09:11;8.50;99.90
47336;DHT22;33068;51.990;5.926;2023-02-23T10:11:51;8.60;99.90
47336;DHT22;33068;51.990;5.926;2023-02-23T10:14:59;8.70;99.90
47336;DHT22;33068;51.990;5.926;2023-02-23T10:18:37;8.80;99.90
47336;DHT22;33068;51.990;5.926;2023-02-23T10:21:12;8.80;99.90
47336;DHT22;33068;51.990;5.926;2023-02-23T10:23:57;8.80;99.90
47336;DHT22;33068;51.990;5.926;2023-02-23T10:26:37;8.80;99.90
47336;DHT22;33068;51.990;5.926;2023-02-23T10:29:32;8.80;99.90
47336;DHT22;33068;51.990;5.926;2023-02-23T10:32:26;8.80;99.90
47336;DHT22;33068;51.990;5.926;2023-02-23T10:35:13;8.70;99.90
47336;DHT22;33068;51.990;5.926;2023-02-23T10:38:03;8.70;99.90
47336;DHT22;33068;51.990;5.926;2023-02-23T10:40:40;8.60;99.90
47336;DHT22;33068;51.990;5.926;2023-02-23T10:43:46;8.60;99.90
47336;DHT22;33068;51.990;5.926;2023-02-23T10:46:37;8.70;99.90
47336;DHT22;33068;51.990;5.926;2023-02-23T10:49:13;8.60;99.90
47336;DHT22;33068;51.990;5.926;2023-02-23T10:51:46;8.70;99.90
47336;DHT22;33068;51.990;5.926;2023-02-23T10:54:41;8.70;99.90
47336;DHT22;33068;51.990;5.926;2023-02-23T10:57:43;8.70;99.90
47336;DHT22;33068;51.990;5.926;2023-02-23T11:00:29;8.60;99.90
47336;DHT22;33068;51.990;5.926;2023-02-23T11:03:16;8.90;99.90
47336;DHT22;33068;51.990;5.926;2023-02-23T11:06:26;8.70;99.90
47336;DHT22;33068;51.990;5.926;2023-02-23T11:09:41;8.70;99.90
47336;DHT22;33068;51.990;5.926;2023-02-23T11:12:42;8.70;99.90
47336;DHT22;33068;51.990;5.926;2023-02-23T11:15:32;8.70;99.90
47336;DHT22;33068;51.990;5.926;2023-02-23T11:18:34;8.80;99.90
47336;DHT22;33068;51.990;5.926;2023-02-23T11:21:28;8.70;99.90
47336;DHT22;33068;51.990;5.926;2023-02-23T11:24:45;8.70;99.90
47336;DHT22;33068;51.990;5.926;2023-02-23T11:27:32;8.60;99.90
47336;DHT22;33068;51.990;5.926;2023-02-23T11:33:57;8.60;99.90
47336;DHT22;33068;51.990;5.926;2023-02-23T11:37:01;8.60;99.90
47336;DHT22;33068;51.990;5.926;2023-02-23T11:39:55;8.60;99.90
47336;DHT22;33068;51.990;5.926;2023-02-23T11:42:53;8.70;99.90
47336;DHT22;33068;51.990;5.926;2023-02-23T11:52:28;8.90;99.90
47336;DHT22;33068;51.990;5.926;2023-02-23T11:59:00;8.70;99.90
47336;DHT22;33068;51.990;5.926;2023-02-23T12:01:39;8.80;99.90
47336;DHT22;33068;51.990;5.926;2023-02-23T12:04:43;8.80;99.90
47336;DHT22;33068;51.990;5.926;2023-02-23T12:16:04;9.00;99.90
47336;DHT22;33068;51.990;5.926;2023-02-23T12:18:47;9.00;99.90
47336;DHT22;33068;51.990;5.926;2023-02-23T12:21:40;9.00;99.90
47336;DHT22;33068;51.990;5.926;2023-02-23T12:24:51;9.10;99.90
47336;DHT22;33068;51.990;5.926;2023-02-23T12:27:53;9.20;99.90
47336;DHT22;33068;51.990;5.926;2023-02-23T12:31:12;9.10;99.90
47336;DHT22;33068;51.990;5.926;2023-02-23T12:34:03;9.20;99.90
47336;DHT22;33068;51.990;5.926;2023-02-23T12:45:19;9.10;99.90
47336;DHT22;33068;51.990;5.926;2023-02-23T12:46:38;9.00;99.90
47336;DHT22;33068;51.990;5.926;2023-02-23T12:49:34;8.90;99.90
47336;DHT22;33068;51.990;5.926;2023-02-23T12:52:41;8.90;99.90
47336;DHT22;33068;51.990;5.926;2023-02-23T12:55:53;9.00;99.90
47336;DHT22;33068;51.990;5.926;2023-02-23T13:06:07;8.90;99.90
47336;DHT22;33068;51.990;5.926;2023-02-23T13:12:57;8.80;99.90
47336;DHT22;33068;51.990;5.926;2023-02-23T13:15:59;8.80;99.90
47336;DHT22;33068;51.990;5.926;2023-02-23T13:20:27;8.80;99.90
47336;DHT22;33068;51.990;5.926;2023-02-23T13:23:14;8.80;99.90
47336;DHT22;33068;51.990;5.926;2023-02-23T13:26:25;8.90;99.90
47336;DHT22;33068;51.990;5.926;2023-02-23T13:29:30;8.90;99.90
47336;DHT22;33068;51.990;5.926;2023-02-23T13:32:42;8.80;99.90
47336;DHT22;33068;51.990;5.926;2023-02-23T13:35:47;8.80;99.90
47336;DHT22;33068;51.990;5.926;2023-02-23T13:43:07;8.90;99.90
47336;DHT22;33068;51.990;5.926;2023-02-23T13:46:27;8.80;99.90
47336;DHT22;33068;51.990;5.926;2023-02-23T13:49:25;8.70;99.90
47336;DHT22;33068;51.990;5.926;2023-02-23T13:52:28;8.60;99.90
47336;DHT22;33068;51.990;5.926;2023-02-23T13:55:34;8.70;99.90
47336;DHT22;33068;51.990;5.926;2023-02-23T13:58:25;8.70;99.90
47336;DHT22;33068;51.990;5.926;2023-02-23T14:01:09;8.80;99.90
47336;DHT22;33068;51.990;5.926;2023-02-23T14:04:04;8.80;99.90
47336;DHT22;33068;51.990;5.926;2023-02-23T14:07:20;8.80;99.90
47336;DHT22;33068;51.990;5.926;2023-02-23T14:10:18;8.90;99.90
47336;DHT22;33068;51.990;5.926;2023-02-23T14:24:20;9.30;99.90
47336;DHT22;33068;51.990;5.926;2023-02-23T14:27:18;9.10;99.90
47336;DHT22;33068;51.990;5.926;2023-02-23T14:30:23;8.90;99.90
47336;DHT22;33068;51.990;5.926;2023-02-23T14:38:59;9.00;99.90
47336;DHT22;33068;51.990;5.926;2023-02-23T14:41:42;9.00;99.90
47336;DHT22;33068;51.990;5.926;2023-02-23T14:44:52;9.00;99.90
47336;DHT22;33068;51.990;5.926;2023-02-23T14:47:30;9.00;99.90
47336;DHT22;33068;51.990;5.926;2023-02-23T14:52:12;8.90;99.90
47336;DHT22;33068;51.990;5.926;2023-02-23T15:01:44;8.80;99.90
47336;DHT22;33068;51.990;5.926;2023-02-23T15:04:32;8.80;99.90
47336;DHT22;33068;51.990;5.926;2023-02-23T15:07:34;8.80;99.90
47336;DHT22;33068;51.990;5.926;2023-02-23T15:13:42;8.80;99.90
47336;DHT22;33068;51.990;5.926;2023-02-23T15:21:08;8.70;99.90
47336;DHT22;33068;51.990;5.926;2023-02-23T15:24:20;8.70;99.90
47336;DHT22;33068;51.990;5.926;2023-02-23T15:27:40;8.70;99.90
47336;DHT22;33068;51.990;5.926;2023-02-23T15:30:52;8.70;99.90
47336;DHT22;33068;51.990;5.926;2023-02-23T15:34:02;8.70;99.90
47336;DHT22;33068;51.990;5.926;2023-02-23T15:37:18;8.60;99.90
47336;DHT22;33068;51.990;5.926;2023-02-23T15:40:03;8.70;99.90
47336;DHT22;33068;51.990;5.926;2023-02-23T15:42:51;8.70;99.90
47336;DHT22;33068;51.990;5.926;2023-02-23T15:45:39;8.60;99.90
47336;DHT22;33068;51.990;5.926;2023-02-23T15:48:47;8.60;99.90
47336;DHT22;33068;51.990;5.926;2023-02-23T15:56:19;8.60;99.90
47336;DHT22;33068;51.990;5.926;2023-02-23T15:59:59;8.60;99.90
47336;DHT22;33068;51.990;5.926;2023-02-23T16:02:42;8.60;99.90
47336;DHT22;33068;51.990;5.926;2023-02-23T17:18:28;8.30;99.90
47336;DHT22;33068;51.990;5.926;2023-02-23T17:21:00;8.30;99.90
47336;DHT22;33068;51.990;5.926;2023-02-23T17:23:40;8.20;99.90
47336;DHT22;33068;51.990;5.926;2023-02-23T17:26:21;8.10;99.90
47336;DHT22;33068;51.990;5.926;2023-02-23T17:28:57;8.10;99.90
47336;DHT22;33068;51.990;5.926;2023-02-23T17:31:26;8.10;99.90
47336;DHT22;33068;51.990;5.926;2023-02-23T17:33:54;8.00;99.90
47336;DHT22;33068;51.990;5.926;2023-02-23T17:36:22;8.00;99.90
47336;DHT22;33068;51.990;5.926;2023-02-23T17:38:52;7.90;99.90
47336;DHT22;33068;51.990;5.926;2023-02-23T17:41:24;7.80;99.90
47336;DHT22;33068;51.990;5.926;2023-02-23T17:43:51;7.80;99.90
47336;DHT22;33068;51.990;5.926;2023-02-23T17:46:18;7.70;99.90
47336;DHT22;33068;51.990;5.926;2023-02-23T17:48:45;7.70;99.90
47336;DHT22;33068;51.990;5.926;2023-02-23T17:51:57;7.60;99.90
47336;DHT22;33068;51.990;5.926;2023-02-23T17:54:33;7.50;99.90
47336;DHT22;33068;51.990;5.926;2023-02-23T17:59:58;7.40;99.90
47336;DHT22;33068;51.990;5.926;2023-02-23T18:02:38;7.30;99.90
47336;DHT22;33068;51.990;5.926;2023-02-23T18:05:12;7.30;99.90
47336;DHT22;33068;51.990;5.926;2023-02-23T18:07:43;7.30;99.90
47336;DHT22;33068;51.990;5.926;2023-02-23T18:10:11;7.30;99.90
47336;DHT22;33068;51.990;5.926;2023-02-23T18:12:41;7.30;99.90
47336;DHT22;33068;51.990;5.926;2023-02-23T18:15:08;7.20;99.90
47336;DHT22;33068;51.990;5.926;2023-02-23T18:17:39;7.20;99.90
47336;DHT22;33068;51.990;5.926;2023-02-23T18:20:19;7.10;99.90
47336;DHT22;33068;51.990;5.926;2023-02-23T18:22:52;7.00;99.90
47336;DHT22;33068;51.990;5.926;2023-02-23T18:25:34;7.00;99.90
47336;DHT22;33068;51.990;5.926;2023-02-23T18:28:08;6.90;99.90
47336;DHT22;33068;51.990;5.926;2023-02-23T18:30:41;6.90;99.90
47336;DHT22;33068;51.990;5.926;2023-02-23T18:33:09;6.80;99.90
47336;DHT22;33068;51.990;5.926;2023-02-23T18:35:49;6.70;99.90
47336;DHT22;33068;51.990;5.926;2023-02-23T18:38:26;6.70;99.90
47336;DHT22;33068;51.990;5.926;2023-02-23T18:40:58;6.60;99.90
47336;DHT22;33068;51.990;5.926;2023-02-23T18:43:35;6.70;99.90
47336;DHT22;33068;51.990;5.926;2023-02-23T18:46:05;6.60;99.90
47336;DHT22;33068;51.990;5.926;2023-02-23T18:48:39;6.60;99.90
47336;DHT22;33068;51.990;5.926;2023-02-23T18:51:27;6.50;99.90
47336;DHT22;33068;51.990;5.926;2023-02-23T18:54:22;6.50;99.90
47336;DHT22;33068;51.990;5.926;2023-02-23T18:57:13;6.40;99.90
47336;DHT22;33068;51.990;5.926;2023-02-23T19:00:15;6.30;99.90
47336;DHT22;33068;51.990;5.926;2023-02-23T19:02:47;6.20;99.90
47336;DHT22;33068;51.990;5.926;2023-02-23T19:05:16;6.10;99.90
47336;DHT22;33068;51.990;5.926;2023-02-23T19:07:57;6.50;99.90
47336;DHT22;33068;51.990;5.926;2023-02-23T19:10:31;6.30;99.90
47336;DHT22;33068;51.990;5.926;2023-02-23T19:13:01;6.10;99.90
47336;DHT22;33068;51.990;5.926;2023-02-23T19:15:51;6.00;99.90
47336;DHT22;33068;51.990;5.926;2023-02-23T19:18:19;5.90;99.90
47336;DHT22;33068;51.990;5.926;2023-02-23T19:21:00;5.90;99.90
47336;DHT22;33068;51.990;5.926;2023-02-23T19:23:52;5.80;99.90
47336;DHT22;33068;51.990;5.926;2023-02-23T19:26:32;5.70;99.90
47336;DHT22;33068;51.990;5.926;2023-02-23T19:29:00;5.20;99.90
47336;DHT22;33068;51.990;5.926;2023-02-23T19:31:27;5.60;99.90
47336;DHT22;33068;51.990;5.926;2023-02-23T19:33:56;5.50;99.90
47336;DHT22;33068;51.990;5.926;2023-02-23T19:36:25;5.50;99.90
47336;DHT22;33068;51.990;5.926;2023-02-23T19:38:56;5.40;99.90
47336;DHT22;33068;51.990;5.926;2023-02-23T19:41:32;5.50;99.90
47336;DHT22;33068;51.990;5.926;2023-02-23T19:43:59;5.20;99.90
47336;DHT22;33068;51.990;5.926;2023-02-23T19:46:27;5.10;99.90
47336;DHT22;33068;51.990;5.926;2023-02-23T19:48:54;5.10;99.90
47336;DHT22;33068;51.990;5.926;2023-02-23T19:51:22;5.00;99.90
47336;DHT22;33068;51.990;5.926;2023-02-23T19:53:52;5.00;99.90
47336;DHT22;33068;51.990;5.926;2023-02-23T19:56:20;4.90;99.90
47336;DHT22;33068;51.990;5.926;2023-02-23T19:58:51;4.90;99.90
47336;DHT22;33068;51.990;5.926;2023-02-23T20:01:19;4.80;99.90
47336;DHT22;33068;51.990;5.926;2023-02-23T20:03:48;4.80;99.90
47336;DHT22;33068;51.990;5.926;2023-02-23T20:06:21;4.80;99.90
47336;DHT22;33068;51.990;5.926;2023-02-23T20:08:49;4.80;99.90
47336;DHT22;33068;51.990;5.926;2023-02-23T20:11:20;4.80;99.90
47336;DHT22;33068;51.990;5.926;2023-02-23T20:13:50;4.70;99.90
47336;DHT22;33068;51.990;5.926;2023-02-23T20:16:18;4.60;99.90
47336;DHT22;33068;51.990;5.926;2023-02-23T20:18:45;4.60;99.90
47336;DHT22;33068;51.990;5.926;2023-02-23T20:21:14;4.60;99.90
47336;DHT22;33068;51.990;5.926;2023-02-23T20:23:43;4.50;99.90
47336;DHT22;33068;51.990;5.926;2023-02-23T20:26:13;4.50;99.90
47336;DHT22;33068;51.990;5.926;2023-02-23T20:28:40;4.40;99.90
47336;DHT22;33068;51.990;5.926;2023-02-23T20:31:12;4.40;99.90
47336;DHT22;33068;51.990;5.926;2023-02-23T20:33:39;4.30;99.90
47336;DHT22;33068;51.990;5.926;2023-02-23T20:36:07;4.20;99.90
47336;DHT22;33068;51.990;5.926;2023-02-23T20:38:36;4.20;99.90
47336;DHT22;33068;51.990;5.926;2023-02-23T20:41:04;4.20;99.90
47336;DHT22;33068;51.990;5.926;2023-02-23T20:43:32;4.10;99.90
47336;DHT22;33068;51.990;5.926;2023-02-23T20:45:59;4.10;99.90
47336;DHT22;33068;51.990;5.926;2023-02-23T20:48:29;4.10;99.90
47336;DHT22;33068;51.990;5.926;2023-02-23T20:50:57;4.00;99.90
47336;DHT22;33068;51.990;5.926;2023-02-23T20:53:27;4.10;99.90
47336;DHT22;33068;51.990;5.926;2023-02-23T20:55:54;3.90;99.90
47336;DHT22;33068;51.990;5.926;2023-02-23T20:58:22;4.00;99.90
47336;DHT22;33068;51.990;5.926;2023-02-23T21:00:51;3.90;99.90
47336;DHT22;33068;51.990;5.926;2023-02-23T21:03:21;3.90;99.90
47336;DHT22;33068;51.990;5.926;2023-02-23T21:05:50;4.00;99.90
47336;DHT22;33068;51.990;5.926;2023-02-23T21:08:18;3.70;99.90
47336;DHT22;33068;51.990;5.926;2023-02-23T21:10:46;3.80;99.90
47336;DHT22;33068;51.990;5.926;2023-02-23T21:13:15;3.70;99.90
47336;DHT22;33068;51.990;5.926;2023-02-23T21:15:43;3.70;99.90
47336;DHT22;33068;51.990;5.926;2023-02-23T21:18:10;3.70;99.90
47336;DHT22;33068;51.990;5.926;2023-02-23T21:20:38;3.60;99.90
47336;DHT22;33068;51.990;5.926;2023-02-23T21:23:07;3.50;99.90
47336;DHT22;33068;51.990;5.926;2023-02-23T21:25:34;3.50;99.90
47336;DHT22;33068;51.990;5.926;2023-02-23T21:28:01;3.40;99.90
47336;DHT22;33068;51.990;5.926;2023-02-23T21:30:28;3.50;99.90
47336;DHT22;33068;51.990;5.926;2023-02-23T21:32:56;3.40;99.90
47336;DHT22;33068;51.990;5.926;2023-02-23T21:35:24;3.40;99.90
47336;DHT22;33068;51.990;5.926;2023-02-23T21:37:51;3.40;99.90
47336;DHT22;33068;51.990;5.926;2023-02-23T21:40:21;3.30;99.90
47336;DHT22;33068;51.990;5.926;2023-02-23T21:42:50;3.30;99.90
47336;DHT22;33068;51.990;5.926;2023-02-23T21:45:18;3.20;99.90
47336;DHT22;33068;51.990;5.926;2023-02-23T21:47:46;3.20;99.90
47336;DHT22;33068;51.990;5.926;2023-02-23T21:50:16;3.20;99.90
47336;DHT22;33068;51.990;5.926;2023-02-23T21:52:44;3.20;99.90
47336;DHT22;33068;51.990;5.926;2023-02-23T21:55:14;3.20;99.90
47336;DHT22;33068;51.990;5.926;2023-02-23T21:57:43;3.20;99.90
47336;DHT22;33068;51.990;5.926;2023-02-23T22:00:12;3.10;99.90
47336;DHT22;33068;51.990;5.926;2023-02-23T22:02:43;3.10;99.90
47336;DHT22;33068;51.990;5.926;2023-02-23T22:05:12;3.00;99.90
47336;DHT22;33068;51.990;5.926;2023-02-23T22:07:40;3.00;99.90
47336;DHT22;33068;51.990;5.926;2023-02-23T22:10:08;3.00;99.90
47336;DHT22;33068;51.990;5.926;2023-02-23T22:12:35;3.00;99.90
47336;DHT22;33068;51.990;5.926;2023-02-23T22:15:05;3.10;99.90
47336;DHT22;33068;51.990;5.926;2023-02-23T22:17:33;2.90;99.90
47336;DHT22;33068;51.990;5.926;2023-02-23T22:20:01;2.90;99.90
47336;DHT22;33068;51.990;5.926;2023-02-23T22:22:29;2.90;99.90
47336;DHT22;33068;51.990;5.926;2023-02-23T22:25:01;2.90;99.90
47336;DHT22;33068;51.990;5.926;2023-02-23T22:27:28;2.90;99.90
47336;DHT22;33068;51.990;5.926;2023-02-23T22:29:59;2.90;99.90
47336;DHT22;33068;51.990;5.926;2023-02-23T22:32:29;2.90;99.90
47336;DHT22;33068;51.990;5.926;2023-02-23T22:34:57;2.90;99.90
47336;DHT22;33068;51.990;5.926;2023-02-23T22:37:28;2.90;99.90
47336;DHT22;33068;51.990;5.926;2023-02-23T22:39:56;2.60;99.90
47336;DHT22;33068;51.990;5.926;2023-02-23T22:42:24;2.80;99.90
47336;DHT22;33068;51.990;5.926;2023-02-23T22:44:54;2.80;99.90
47336;DHT22;33068;51.990;5.926;2023-02-23T22:47:21;2.70;99.90
47336;DHT22;33068;51.990;5.926;2023-02-23T22:49:50;2.60;99.90
47336;DHT22;33068;51.990;5.926;2023-02-23T22:52:18;2.70;99.90
47336;DHT22;33068;51.990;5.926;2023-02-23T22:54:45;2.70;99.90
47336;DHT22;33068;51.990;5.926;2023-02-23T22:57:12;2.50;99.90
47336;DHT22;33068;51.990;5.926;2023-02-23T22:59:40;2.60;99.90
47336;DHT22;33068;51.990;5.926;2023-02-23T23:02:19;2.50;99.90
47336;DHT22;33068;51.990;5.926;2023-02-23T23:04:51;2.30;99.90
47336;DHT22;33068;51.990;5.926;2023-02-23T23:07:21;2.30;99.90
47336;DHT22;33068;51.990;5.926;2023-02-23T23:09:50;2.40;99.90
47336;DHT22;33068;51.990;5.926;2023-02-23T23:12:18;2.40;99.90
47336;DHT22;33068;51.990;5.926;2023-02-23T23:14:51;2.30;99.90
47336;DHT22;33068;51.990;5.926;2023-02-23T23:17:26;2.30;99.90
47336;DHT22;33068;51.990;5.926;2023-02-23T23:19:56;2.50;99.90
47336;DHT22;33068;51.990;5.926;2023-02-23T23:22:26;2.20;99.90
47336;DHT22;33068;51.990;5.926;2023-02-23T23:25:16;2.30;99.90
47336;DHT22;33068;51.990;5.926;2023-02-23T23:27:52;2.20;99.90
47336;DHT22;33068;51.990;5.926;2023-02-23T23:30:20;2.10;99.90
47336;DHT22;33068;51.990;5.926;2023-02-23T23:32:50;2.20;99.90
47336;DHT22;33068;51.990;5.926;2023-02-23T23:35:32;2.00;99.90
47336;DHT22;33068;51.990;5.926;2023-02-23T23:38:03;2.20;99.90
47336;DHT22;33068;51.990;5.926;2023-02-23T23:40:33;2.20;99.90
47336;DHT22;33068;51.990;5.926;2023-02-23T23:43:07;2.30;99.90
47336;DHT22;33068;51.990;5.926;2023-02-23T23:45:43;2.10;99.90
47336;DHT22;33068;51.990;5.926;2023-02-23T23:48:25;2.10;99.90
47336;DHT22;33068;51.990;5.926;2023-02-23T23:51:00;2.10;99.90
47336;DHT22;33068;51.990;5.926;2023-02-23T23:53:30;2.00;99.90
47336;DHT22;33068;51.990;5.926;2023-02-23T23:56:05;1.60;99.90
47336;DHT22;33068;51.990;5.926;2023-02-23T23:58:37;2.00;99.90
